Time;durP1;ratioP1;P1;durP2;ratioP2;P2;SDS_P1;SDS_P2;PMS_P1;PMS_P2;Temp;Humidity;BMP_temperature;BMP_pressure;BME280_temperature;BME280_humidity;BME280_pressure;Samples;Min_cycle;Max_cycle;Signal;HPM_P1;HPM_P2
2021/07/27 00:00:19;;;;;;;29.05;8.77;;;;;;;23.96;41.73;99760.03;5045750;28;20048;-71
2021/07/27 00:02:45;;;;;;;21.27;7.63;;;;;;;23.86;41.35;99750.25;5041034;28;20053;-71
2021/07/27 00:05:11;;;;;;;23.58;8.68;;;;;;;23.85;41.77;99757.03;5043459;28;20045;-72
2021/07/27 00:07:38;;;;;;;22.97;8.97;;;;;;;23.79;41.93;99753.72;5047922;28;20051;-70
2021/07/27 00:10:05;;;;;;;23.88;9.10;;;;;;;23.73;41.60;99758.75;5046659;28;20330;-72
2021/07/27 00:12:31;;;;;;;;;;;;;;;23.68;41.69;99755.44;5031948;28;20087;-71
2021/07/27 00:14:58;;;;;;;21.03;8.47;;;;;;;23.61;41.96;99747.72;5030306;28;19960;-70
2021/07/27 00:17:28;;;;;;;24.27;9.02;;;;;;;23.61;41.99;99753.31;5035008;28;20049;-71
2021/07/27 00:19:55;;;;;;;25.23;8.50;;;;;;;23.57;42.14;99758.84;5041650;28;20138;-71
2021/07/27 00:22:21;;;;;;;25.23;8.20;;;;;;;23.55;42.00;99763.16;5030391;28;20041;-71
2021/07/27 00:24:47;;;;;;;23.30;7.95;;;;;;;23.50;42.45;99753.06;5048934;28;20053;-71
2021/07/27 00:27:13;;;;;;;21.95;8.32;;;;;;;23.44;42.30;99751.75;5033734;28;20557;-71
2021/07/27 00:29:39;;;;;;;21.48;8.00;;;;;;;23.41;42.18;99760.81;5014786;28;20050;-71
2021/07/27 00:32:07;;;;;;;23.42;8.13;;;;;;;23.39;42.08;99754.81;5050151;28;20064;-71
2021/07/27 00:34:33;;;;;;;22.27;7.93;;;;;;;23.33;42.31;99752.31;5049642;28;20047;-70
2021/07/27 00:36:59;;;;;;;23.58;7.95;;;;;;;23.29;42.22;99762.56;5034530;28;20046;-72
2021/07/27 00:39:25;;;;;;;20.50;8.00;;;;;;;23.31;42.26;99762.19;5030866;28;20087;-72
2021/07/27 00:41:51;;;;;;;28.73;8.27;;;;;;;23.31;42.43;99762.19;5044998;28;20509;-73
2021/07/27 00:44:18;;;;;;;30.10;8.50;;;;;;;23.30;42.25;99764.19;5040980;28;20053;-73
2021/07/27 00:46:44;;;;;;;19.52;8.00;;;;;;;23.33;42.20;99757.88;5031578;28;20045;-73
2021/07/27 00:49:11;;;;;;;23.98;7.88;;;;;;;23.35;42.28;99751.94;5035688;28;20067;-72
2021/07/27 00:51:39;;;;;;;23.45;8.07;;;;;;;23.39;42.67;99754.81;5051293;28;20060;-72
2021/07/27 00:54:08;;;;;;;22.75;8.32;;;;;;;23.41;42.77;99758.03;5043851;28;20045;-72
2021/07/27 00:56:35;;;;;;;24.35;8.48;;;;;;;23.39;42.52;99757.59;5030845;28;20136;-70
2021/07/27 00:59:01;;;;;;;26.33;7.88;;;;;;;23.35;42.26;99761.13;5032474;28;20045;-72
2021/07/27 01:01:27;;;;;;;26.33;8.15;;;;;;;23.36;42.74;99756.34;5054566;28;20135;-72
2021/07/27 01:03:53;;;;;;;17.98;7.55;;;;;;;23.35;42.54;99754.75;5066446;28;20148;-73
2021/07/27 01:06:21;;;;;;;25.35;8.75;;;;;;;23.33;42.32;99743.94;5047807;28;20052;-70
2021/07/27 01:08:48;;;;;;;19.80;7.93;;;;;;;23.28;42.49;99755.38;5046683;28;20076;-75
2021/07/27 01:11:24;;;;;;;21.90;7.93;;;;;;;23.15;42.46;99737.09;5018111;28;20140;-75
2021/07/27 01:13:51;;;;;;;27.67;8.23;;;;;;;23.25;42.88;99752.47;5050085;28;20056;-75
2021/07/27 01:16:19;;;;;;;22.97;7.93;;;;;;;23.19;42.69;99743.56;5033495;28;20046;-74
2021/07/27 01:18:59;;;;;;;22.83;8.15;;;;;;;23.20;42.85;99748.81;5043119;28;20501;-73
2021/07/27 01:40:51;;;;;;;25.98;7.25;;;;;;;22.82;42.69;99744.66;5050963;28;20064;-72
2021/07/27 01:43:21;;;;;;;21.85;7.47;;;;;;;22.87;42.42;99749.19;5043031;28;20099;-74
2021/07/27 01:45:48;;;;;;;17.63;6.80;;;;;;;22.80;42.66;99747.84;5050092;28;20041;-74
2021/07/27 01:48:14;;;;;;;24.15;7.13;;;;;;;22.80;42.43;99750.63;5034078;28;20077;-75
2021/07/27 01:50:40;;;;;;;22.45;6.70;;;;;;;22.77;42.49;99742.97;5046560;28;20127;-73
2021/07/27 01:53:27;;;;;;;19.02;7.20;;;;;;;22.71;42.48;99738.00;5015961;28;20049;-74
2021/07/27 01:55:55;;;;;;;16.77;6.28;;;;;;;22.74;42.39;99740.09;5053574;28;20128;-70
2021/07/27 01:58:22;;;;;;;17.15;6.28;;;;;;;22.73;42.12;99744.06;5034166;28;20068;-67
2021/07/27 02:00:48;;;;;;;20.92;6.53;;;;;;;22.81;42.19;99748.63;5059141;28;20055;-69
2021/07/27 02:03:14;;;;;;;21.92;6.13;;;;;;;22.78;42.01;99752.94;5042164;28;20608;-68
2021/07/27 02:05:41;;;;;;;17.10;5.60;;;;;;;22.76;41.81;99737.75;5034979;28;20084;-68
2021/07/27 02:08:07;;;;;;;15.43;5.57;;;;;;;22.69;41.88;99741.19;5051348;28;20060;-67
2021/07/27 02:10:33;;;;;;;14.48;5.43;;;;;;;22.73;41.25;99736.50;5033782;28;20060;-69
2021/07/27 02:13:11;;;;;;;16.50;5.10;;;;;;;22.77;41.28;99737.38;5049823;28;20048;-68
2021/07/27 02:15:38;;;;;;;17.13;5.13;;;;;;;22.76;41.60;99744.13;5041715;28;20051;-68
2021/07/27 02:18:04;;;;;;;12.95;5.07;;;;;;;22.74;41.42;99737.31;5050674;28;20086;-68
2021/07/27 02:20:31;;;;;;;17.73;4.88;;;;;;;22.74;41.28;99735.31;5047826;28;20048;-69
2021/07/27 02:22:57;;;;;;;17.17;5.53;;;;;;;22.73;41.38;99742.06;5051800;28;20139;-69
2021/07/27 02:25:23;;;;;;;19.17;5.73;;;;;;;22.73;41.07;99753.22;5051010;28;20163;-68
2021/07/27 02:27:49;;;;;;;16.00;5.37;;;;;;;22.74;41.38;99752.03;5046484;28;20041;-68
2021/07/27 02:30:17;;;;;;;14.50;6.07;;;;;;;22.75;41.21;99756.44;5019227;28;20711;-69
2021/07/27 02:32:45;;;;;;;17.05;6.20;;;;;;;22.73;41.10;99750.44;5040544;28;20054;-68
2021/07/27 02:35:11;;;;;;;37.22;15.05;;;;;;;22.75;41.51;99745.31;5037111;28;20056;-69
2021/07/27 02:37:37;;;;;;;24.50;9.17;;;;;;;22.75;41.40;99750.88;5038240;28;20041;-69
2021/07/27 02:40:05;;;;;;;25.50;8.35;;;;;;;22.74;41.77;99746.47;5032978;28;20065;-70
2021/07/27 02:42:32;;;;;;;23.73;9.32;;;;;;;22.77;41.97;99747.75;5036417;28;20045;-69
2021/07/27 02:44:58;;;;;;;38.83;18.63;;;;;;;22.76;42.16;99752.50;5069450;28;20052;-70
2021/07/27 02:47:25;;;;;;;35.47;17.85;;;;;;;22.74;41.92;99752.03;5020604;28;20091;-71
2021/07/27 02:49:52;;;;;;;30.25;14.73;;;;;;;22.76;41.89;99746.91;5015963;28;20077;-69
2021/07/27 02:52:18;;;;;;;21.75;10.80;;;;;;;22.77;41.84;99744.97;5033462;28;20061;-71
2021/07/27 02:54:44;;;;;;;29.73;14.90;;;;;;;22.76;41.49;99748.91;5032755;28;20053;-70
2021/07/27 02:57:10;;;;;;;43.63;22.80;;;;;;;22.77;41.28;99754.09;5034480;28;20071;-69
2021/07/27 02:59:36;;;;;;;25.08;12.50;;;;;;;22.74;41.31;99746.47;5019590;28;20117;-70
2021/07/27 03:02:02;;;;;;;30.92;19.20;;;;;;;22.84;41.24;99752.69;5048810;28;20080;-71
2021/07/27 03:04:30;;;;;;;35.65;19.63;;;;;;;22.86;41.45;99753.94;5036107;28;20068;-68
2021/07/27 03:06:56;;;;;;;25.08;13.35;;;;;;;22.90;41.32;99754.03;5035345;28;20135;-70
2021/07/27 03:09:28;;;;;;;19.70;10.03;;;;;;;22.92;41.69;99746.09;5042380;28;20053;-71
2021/07/27 03:11:54;;;;;;;20.58;9.13;;;;;;;22.94;41.88;99752.94;5050123;28;20041;-71
2021/07/27 03:14:20;;;;;;;21.10;8.50;;;;;;;22.93;41.68;99759.69;5038582;28;20046;-71
2021/07/27 03:16:46;;;;;;;21.83;8.32;;;;;;;22.94;41.95;99749.34;5032035;28;20053;-70
2021/07/27 03:19:13;;;;;;;20.90;8.75;;;;;;;22.91;42.13;99750.88;5043080;28;20052;-71
2021/07/27 03:21:40;;;;;;;19.60;7.82;;;;;;;22.88;42.09;99745.22;5051904;28;20429;-70
2021/07/27 03:24:07;;;;;;;26.10;8.07;;;;;;;22.92;41.97;99752.50;5039231;28;20038;-71
2021/07/27 03:26:33;;;;;;;23.20;8.55;;;;;;;22.93;42.27;99745.75;5032496;28;20061;-71
2021/07/27 03:28:59;;;;;;;26.05;8.02;;;;;;;22.92;42.27;99746.09;5037073;28;20079;-71
2021/07/27 03:31:25;;;;;;;20.20;8.50;;;;;;;22.92;42.48;99751.69;5043078;28;20069;-72
2021/07/27 03:33:51;;;;;;;22.37;8.07;;;;;;;22.89;42.33;99747.66;5030997;28;20034;-71
2021/07/27 03:36:17;;;;;;;19.33;8.18;;;;;;;22.95;42.56;99753.78;5049876;28;20044;-70
2021/07/27 03:38:45;;;;;;;23.10;8.07;;;;;;;22.96;42.27;99749.81;5040506;28;20061;-70
2021/07/27 03:41:11;;;;;;;23.80;7.97;;;;;;;22.98;42.37;99738.28;5045833;28;20087;-70
2021/07/27 03:43:39;;;;;;;16.48;7.40;;;;;;;23.00;42.04;99735.94;5036326;28;20056;-69
2021/07/27 03:46:05;;;;;;;27.48;8.38;;;;;;;23.03;42.32;99749.97;5039508;28;20406;-71
2021/07/27 03:48:31;;;;;;;23.65;8.52;;;;;;;23.03;42.98;99744.41;5052124;28;20059;-72
2021/07/27 03:50:58;;;;;;;32.08;9.85;;;;;;;23.00;42.81;99741.50;5041776;28;20037;-73
2021/07/27 03:53:25;;;;;;;25.33;8.98;;;;;;;23.01;43.10;99743.97;5033330;28;20067;-82
2021/07/27 03:55:52;;;;;;;27.13;8.95;;;;;;;22.98;42.99;99739.09;5060143;28;20477;-84
2021/07/27 03:58:19;;;;;;;29.27;9.35;;;;;;;23.06;43.65;99740.88;5024489;28;20057;-84
2021/07/27 04:00:46;;;;;;;30.55;9.63;;;;;;;22.99;44.41;99737.13;5040838;28;20033;-82
2021/07/27 04:03:12;;;;;;;34.00;9.40;;;;;;;23.05;44.31;99742.06;5015307;28;20053;-82
2021/07/27 04:05:40;;;;;;;26.33;8.38;;;;;;;23.07;44.28;99739.72;5016857;28;20071;-82
2021/07/27 04:08:06;;;;;;;34.17;9.20;;;;;;;23.03;44.36;99729.66;4999021;28;20073;-83
2021/07/27 04:10:32;;;;;;;24.65;8.10;;;;;;;23.04;44.20;99731.28;5034508;28;20041;-82
2021/07/27 04:13:00;;;;;;;32.28;8.07;;;;;;;23.15;44.40;99740.69;5015257;28;20422;-83
2021/07/27 04:15:42;;;;;;;27.48;8.20;;;;;;;23.17;44.72;99738.34;5059377;28;20117;-80
2021/07/27 04:18:08;;;;;;;24.52;8.30;;;;;;;23.17;44.78;99731.97;5039392;28;20061;-82
2021/07/27 04:20:35;;;;;;;23.38;8.02;;;;;;;23.25;44.89;99736.53;5006164;28;20053;-83
2021/07/27 04:23:01;;;;;;;23.17;7.70;;;;;;;23.28;44.46;99727.50;5044245;28;20051;-83
2021/07/27 04:25:29;;;;;;;26.88;7.68;;;;;;;23.35;44.08;99727.66;5050675;28;20146;-84
2021/07/27 04:27:55;;;;;;;26.38;7.30;;;;;;;23.42;43.57;99729.00;5040312;28;20143;-83
2021/07/27 04:30:23;;;;;;;25.17;6.50;;;;;;;23.46;43.28;99718.72;5031196;28;20041;-84
2021/07/27 04:32:49;;;;;;;23.65;6.28;;;;;;;23.49;42.85;99715.19;4999477;28;20144;-85
2021/07/27 04:35:15;;;;;;;21.65;6.68;;;;;;;23.46;42.66;99702.78;5042167;28;20048;-84
2021/07/27 04:37:41;;;;;;;21.07;5.70;;;;;;;23.57;42.24;99716.97;5046929;28;20038;-84
2021/07/27 04:40:08;;;;;;;20.73;6.43;;;;;;;23.60;42.24;99709.84;5040423;28;20307;-84
2021/07/27 04:42:34;;;;;;;;;;;;;;;23.68;41.87;99719.16;5027441;28;20084;-83
2021/07/27 04:45:00;;;;;;;23.43;5.90;;;;;;;23.70;42.01;99717.63;5024878;28;19960;-83
2021/07/27 04:47:28;;;;;;;21.70;7.13;;;;;;;23.73;41.73;99714.13;5028012;28;20043;-83
2021/07/27 04:49:54;;;;;;;26.42;7.22;;;;;;;23.76;41.41;99712.59;5013517;28;20095;-83
2021/07/27 04:52:21;;;;;;;26.08;7.50;;;;;;;23.73;40.95;99707.75;5054101;28;20045;-84
2021/07/27 04:54:51;;;;;;;25.60;9.13;;;;;;;23.80;41.01;99705.09;5021451;28;20091;-85
2021/07/27 04:57:17;;;;;;;26.50;8.07;;;;;;;23.86;41.32;99700.00;5040844;28;20505;-85
2021/07/27 04:59:43;;;;;;;19.95;7.53;;;;;;;23.89;41.03;99700.09;5015070;28;20053;-85
2021/07/27 05:02:11;;;;;;;22.35;6.72;;;;;;;23.91;40.95;99696.91;5031779;28;20064;-84
2021/07/27 05:04:38;;;;;;;15.68;6.10;;;;;;;24.00;41.06;99700.31;5036762;28;20069;-84
2021/07/27 05:07:04;;;;;;;13.52;5.00;;;;;;;24.00;41.03;99691.09;5039137;28;20037;-85
2021/07/27 05:09:31;;;;;;;10.97;4.30;;;;;;;23.99;41.11;99675.53;5039859;28;20422;-84
2021/07/27 05:11:57;;;;;;;15.50;5.45;;;;;;;24.06;41.85;99684.88;5021560;28;20063;-83
2021/07/27 05:14:23;;;;;;;15.75;5.20;;;;;;;24.14;42.03;99699.78;5045316;28;20049;-83
2021/07/27 05:16:49;;;;;;;13.57;4.05;;;;;;;24.15;41.98;99701.41;5046634;28;20076;-83
2021/07/27 05:19:23;;;;;;;9.98;4.30;;;;;;;24.26;41.84;99703.59;5044769;28;20501;-83
2021/07/27 05:21:53;;;;;;;10.48;3.90;;;;;;;24.23;41.54;99690.38;5047989;28;20045;-82
2021/07/27 05:24:19;;;;;;;21.75;5.30;;;;;;;24.28;41.07;99699.28;5047757;28;20048;-85
2021/07/27 05:26:45;;;;;;;9.87;3.93;;;;;;;24.33;41.14;99701.75;5017906;28;20064;-85
2021/07/27 05:29:11;;;;;;;9.43;3.90;;;;;;;24.37;41.58;99699.03;5049376;28;20083;-85
2021/07/27 05:31:38;;;;;;;14.02;3.92;;;;;;;24.39;41.02;99705.03;5034224;28;20449;-85
2021/07/27 05:34:04;;;;;;;13.50;4.53;;;;;;;24.31;40.78;99690.13;5030613;28;20068;-86
2021/07/27 05:36:30;;;;;;;11.20;3.88;;;;;;;24.44;40.99;99699.13;5052688;28;20099;-85
2021/07/27 05:38:57;;;;;;;10.83;3.77;;;;;;;24.47;40.79;99700.38;5039309;28;20038;-86
2021/07/27 05:41:23;;;;;;;14.70;4.60;;;;;;;24.47;40.48;99700.38;5035476;28;20069;-81
2021/07/27 05:43:51;;;;;;;15.77;4.63;;;;;;;24.28;39.83;99662.13;5046937;28;20505;-83
2021/07/27 05:46:17;;;;;;;19.38;4.70;;;;;;;24.52;39.73;99696.50;5037573;28;20494;-84
2021/07/27 05:48:46;;;;;;;9.35;4.10;;;;;;;24.50;40.03;99694.84;5018135;28;20608;-84
2021/07/27 05:51:14;;;;;;;14.63;4.78;;;;;;;24.55;39.40;99690.94;5040641;28;20091;-81
2021/07/27 05:53:41;;;;;;;17.55;4.72;;;;;;;24.56;39.27;99694.56;5044190;28;20067;-83
2021/07/27 05:56:09;;;;;;;11.80;4.53;;;;;;;24.45;38.83;99678.41;5028753;28;20107;-83
2021/07/27 05:58:35;;;;;;;13.93;4.60;;;;;;;24.59;38.55;99693.81;5008090;28;20072;-84
2021/07/27 06:01:02;;;;;;;13.10;4.03;;;;;;;24.56;38.57;99686.16;5008703;28;20041;-83
2021/07/27 06:03:30;;;;;;;22.27;4.60;;;;;;;24.50;39.04;99678.06;5051576;28;20794;-85
2021/07/27 06:05:57;;;;;;;15.57;4.63;;;;;;;24.63;39.59;99698.28;5016168;28;20096;-84
2021/07/27 06:08:26;;;;;;;23.25;4.40;;;;;;;24.47;39.45;99680.84;5008813;28;20076;-85
2021/07/27 06:10:52;;;;;;;14.48;4.40;;;;;;;24.61;39.00;99691.44;5039151;28;20033;-84
2021/07/27 06:13:20;;;;;;;15.57;4.20;;;;;;;24.71;38.46;99701.19;5022949;28;20199;-81
2021/07/27 06:15:46;;;;;;;15.38;4.45;;;;;;;24.71;37.92;99695.59;5051737;28;20037;-82
2021/07/27 06:18:12;;;;;;;14.10;4.00;;;;;;;24.69;38.09;99692.38;5024530;28;20106;-82
2021/07/27 06:20:39;;;;;;;17.47;3.97;;;;;;;24.77;37.93;99694.13;5011590;28;20056;-82
2021/07/27 06:23:06;;;;;;;13.65;4.10;;;;;;;24.78;38.99;99704.13;5031440;28;20194;-81
2021/07/27 06:25:32;;;;;;;12.63;3.83;;;;;;;24.81;38.78;99705.34;5047335;28;20046;-71
2021/07/27 06:27:58;;;;;;;13.97;4.00;;;;;;;24.84;38.80;99708.22;5049346;28;20049;-69
2021/07/27 06:30:25;;;;;;;12.57;4.15;;;;;;;24.74;38.73;99684.47;5032515;28;20362;-70
2021/07/27 06:32:51;;;;;;;12.27;4.05;;;;;;;24.85;38.83;99697.84;5032348;28;20099;-70
2021/07/27 06:35:17;;;;;;;13.98;4.05;;;;;;;24.87;38.38;99699.06;5037056;28;20061;-71
2021/07/27 06:37:43;;;;;;;18.88;4.32;;;;;;;24.87;38.00;99693.50;5043222;28;20449;-71
2021/07/27 06:40:11;;;;;;;11.93;3.97;;;;;;;24.95;37.13;99705.59;5041294;28;20137;-70
2021/07/27 06:42:37;;;;;;;16.27;4.07;;;;;;;24.97;37.39;99700.44;5035513;28;20045;-71
2021/07/27 06:45:04;;;;;;;15.60;4.40;;;;;;;25.02;37.05;99699.31;5032751;28;20053;-71
2021/07/27 06:47:31;;;;;;;16.02;4.20;;;;;;;25.00;36.76;99694.09;5048318;28;20589;-69
2021/07/27 06:49:57;;;;;;;17.20;3.85;;;;;;;25.03;36.59;99695.31;5034784;28;20053;-71
2021/07/27 06:52:23;;;;;;;25.60;4.57;;;;;;;25.03;37.56;99693.34;5043255;28;20425;-71
2021/07/27 06:54:50;;;;;;;17.85;4.60;;;;;;;25.03;39.19;99698.13;5033434;28;20056;-71
2021/07/27 06:57:16;;;;;;;12.15;4.43;;;;;;;25.01;40.07;99694.91;5041555;28;20045;-69
2021/07/27 06:59:42;;;;;;;13.60;4.35;;;;;;;25.00;40.34;99694.09;5041882;28;20045;-70
2021/07/27 07:02:08;;;;;;;14.30;4.80;;;;;;;25.04;40.16;99699.72;5031769;28;20056;-70
2021/07/27 07:04:36;;;;;;;11.10;4.30;;;;;;;25.02;40.12;99697.31;5050908;28;20049;-70
2021/07/27 07:07:02;;;;;;;14.30;3.95;;;;;;;25.05;39.67;99698.53;5040058;28;20045;-69
2021/07/27 07:09:28;;;;;;;14.27;3.53;;;;;;;25.11;38.73;99691.47;5044357;28;20041;-70
2021/07/27 07:11:54;;;;;;;14.13;4.10;;;;;;;25.19;38.17;99681.19;5042127;28;20049;-71
2021/07/27 07:14:20;;;;;;;9.80;4.10;;;;;;;25.16;38.54;99688.34;5041133;28;20041;-70
2021/07/27 07:16:46;;;;;;;11.18;4.00;;;;;;;25.19;38.77;99695.97;5041731;28;20041;-71
2021/07/27 07:19:12;;;;;;;13.82;4.03;;;;;;;25.19;38.79;99698.75;5041970;28;20037;-70
2021/07/27 07:21:40;;;;;;;11.57;4.00;;;;;;;25.25;38.22;99690.06;5035219;28;20049;-72
2021/07/27 07:24:08;;;;;;;10.85;3.72;;;;;;;25.29;38.03;99691.72;5042505;28;20052;-71
2021/07/27 07:26:34;;;;;;;15.10;4.20;;;;;;;25.38;37.27;99690.63;5037506;28;20076;-71
2021/07/27 07:29:00;;;;;;;15.57;3.80;;;;;;;25.42;36.80;99688.69;5038212;28;20447;-85
2021/07/27 07:31:27;;;;;;;14.90;4.70;;;;;;;25.49;36.05;99686.03;5014968;28;20314;-72
2021/07/27 07:33:55;;;;;;;11.18;3.50;;;;;;;25.55;36.00;99683.69;5036157;28;20041;-70
2021/07/27 07:36:22;;;;;;;16.60;4.38;;;;;;;25.54;35.80;99680.09;5043434;28;20071;-71
2021/07/27 07:38:49;;;;;;;10.10;3.40;;;;;;;25.60;35.91;99683.34;5030240;28;20048;-71
2021/07/27 07:41:15;;;;;;;13.20;4.30;;;;;;;25.67;35.18;99679.84;5046172;28;20676;-72
2021/07/27 07:43:41;;;;;;;12.10;3.50;;;;;;;25.69;34.63;99669.06;5046215;28;20047;-71
2021/07/27 07:46:07;;;;;;;18.85;4.25;;;;;;;25.77;34.73;99676.38;5040533;28;20055;-70
2021/07/27 07:48:34;;;;;;;9.17;3.50;;;;;;;25.80;35.07;99680.38;5050205;28;20045;-68
2021/07/27 07:51:02;;;;;;;11.75;3.20;;;;;;;25.83;34.59;99679.63;5048623;28;20086;-70
2021/07/27 07:53:31;;;;;;;12.02;3.50;;;;;;;25.88;34.26;99682.09;5064716;28;20496;-70
2021/07/27 07:55:58;;;;;;;10.55;3.45;;;;;;;25.88;34.46;99662.50;5066766;28;20045;-71
2021/07/27 07:58:24;;;;;;;15.80;3.70;;;;;;;25.96;34.34;99674.59;5030001;28;20043;-75
2021/07/27 08:00:51;;;;;;;11.10;3.60;;;;;;;25.96;34.44;99674.59;5030378;28;20048;-75
2021/07/27 08:03:17;;;;;;;13.33;4.07;;;;;;;25.87;35.82;99666.50;5049210;28;20041;-74
2021/07/27 08:05:43;;;;;;;12.27;3.83;;;;;;;25.97;35.21;99670.59;5052080;28;20048;-74
2021/07/27 08:08:09;;;;;;;10.95;3.90;;;;;;;25.99;35.42;99668.22;5051958;28;20052;-74
2021/07/27 08:10:35;;;;;;;11.52;3.72;;;;;;;25.96;36.28;99672.56;5036191;28;20052;-75
2021/07/27 08:13:03;;;;;;;13.00;4.15;;;;;;;26.01;34.36;99663.03;5048430;28;20198;-75
2021/07/27 08:15:29;;;;;;;15.50;3.92;;;;;;;26.07;33.49;99669.09;5049112;28;20041;-75
2021/07/27 08:17:55;;;;;;;9.07;3.72;;;;;;;26.09;34.03;99667.53;5032997;28;20063;-74
2021/07/27 08:20:22;;;;;;;10.82;3.75;;;;;;;26.03;35.66;99658.66;5040604;28;20051;-75
2021/07/27 08:22:49;;;;;;;11.77;4.03;;;;;;;25.97;37.05;99662.97;5044793;28;20417;-76
2021/07/27 08:25:16;;;;;;;12.10;3.63;;;;;;;25.96;36.07;99657.78;5014419;28;20076;-75
2021/07/27 08:27:43;;;;;;;11.00;3.92;;;;;;;25.92;37.10;99660.53;5038683;28;20053;-74
2021/07/27 08:30:16;;;;;;;13.23;4.30;;;;;;;25.91;37.72;99661.72;5042738;28;20041;-74
2021/07/27 08:32:46;;;;;;;9.77;3.55;;;;;;;26.05;35.93;99655.47;5038831;28;20051;-74
2021/07/27 08:35:13;;;;;;;10.85;3.67;;;;;;;26.02;36.98;99662.66;5039205;28;20045;-75
2021/07/27 08:37:39;;;;;;;13.85;3.95;;;;;;;25.97;37.52;99657.38;5052861;28;20095;-74
2021/07/27 08:40:06;;;;;;;12.20;4.20;;;;;;;25.97;37.38;99659.41;5033443;28;20041;-72
2021/07/27 08:42:34;;;;;;;10.38;3.90;;;;;;;25.98;37.33;99655.41;5051558;28;20702;-75
2021/07/27 08:45:00;;;;;;;;;;;;;;;25.97;37.04;99653.78;5049774;28;20480;-76
2021/07/27 08:47:30;;;;;;;10.93;3.70;;;;;;;25.90;36.61;99654.53;5029727;28;19931;-74
2021/07/27 08:49:56;;;;;;;13.65;3.92;;;;;;;25.98;36.58;99652.59;5050449;28;20122;-76
2021/07/27 08:52:22;;;;;;;14.75;3.65;;;;;;;26.12;35.87;99649.94;5057898;28;20064;-74
2021/07/27 08:54:49;;;;;;;8.05;2.95;;;;;;;26.22;35.28;99640.06;5049950;28;20055;-75
2021/07/27 08:57:15;;;;;;;9.97;4.13;;;;;;;26.32;34.91;99642.16;5041942;28;20052;-75
2021/07/27 08:59:41;;;;;;;13.33;3.70;;;;;;;26.45;34.26;99647.47;5040128;28;20318;-75
2021/07/27 09:02:08;;;;;;;14.88;3.60;;;;;;;26.62;33.75;99643.22;5037560;28;20078;-73
2021/07/27 09:04:35;;;;;;;15.15;4.00;;;;;;;26.75;33.43;99644.50;5011455;28;20049;-74
2021/07/27 09:07:03;;;;;;;10.60;3.55;;;;;;;26.88;32.96;99647.03;5030834;28;20045;-74
2021/07/27 09:09:31;;;;;;;14.38;3.75;;;;;;;26.99;32.36;99641.50;5044709;28;20052;-75
2021/07/27 09:11:58;;;;;;;12.80;4.32;;;;;;;27.11;32.22;99648.78;5054279;28;20072;-76
2021/07/27 09:14:25;;;;;;;14.20;3.88;;;;;;;27.22;31.72;99644.03;5051587;28;20453;-75
2021/07/27 09:16:53;;;;;;;13.65;3.92;;;;;;;27.26;30.81;99646.88;5040028;28;20540;-75
2021/07/27 09:19:19;;;;;;;23.30;4.47;;;;;;;27.32;30.72;99654.50;5022243;28;20061;-76
2021/07/27 09:21:47;;;;;;;16.73;4.18;;;;;;;27.38;30.73;99645.72;5032755;28;20192;-75
2021/07/27 09:24:24;;;;;;;12.35;4.45;;;;;;;27.41;30.84;99644.91;5036240;28;20045;-83
2021/07/27 09:26:57;;;;;;;15.63;4.18;;;;;;;27.41;30.18;99628.91;5015866;28;20053;-82
2021/07/27 09:29:27;;;;;;;12.95;4.20;;;;;;;27.47;29.57;99640.53;5036422;28;20045;-80
2021/07/27 09:31:56;;;;;;;21.80;4.28;;;;;;;27.58;29.88;99638.59;5022918;28;20056;-81
2021/07/27 09:34:23;;;;;;;10.48;3.80;;;;;;;27.66;29.76;99635.84;5039151;28;20042;-80
2021/07/27 09:37:02;;;;;;;14.20;4.20;;;;;;;27.71;29.29;99624.22;5052615;28;20037;-81
2021/07/27 09:39:28;;;;;;;10.02;3.70;;;;;;;27.65;30.83;99626.59;5036136;28;20064;-82
2021/07/27 09:41:58;;;;;;;10.00;3.80;;;;;;;27.72;31.04;99632.25;5032869;28;20095;-82
2021/07/27 09:44:24;;;;;;;12.40;4.13;;;;;;;27.54;32.91;99628.53;5018969;28;20044;-77
2021/07/27 09:46:52;;;;;;;12.55;3.90;;;;;;;27.63;32.73;99629.00;5018885;28;20148;-79
2021/07/27 09:49:19;;;;;;;17.33;4.53;;;;;;;27.78;31.54;99615.78;5015910;28;20053;-79
2021/07/27 09:51:45;;;;;;;11.18;4.55;;;;;;;27.95;30.16;99617.03;5049305;28;20044;-79
2021/07/27 09:54:13;;;;;;;18.88;4.22;;;;;;;28.11;29.42;99615.84;5022625;28;20089;-78
2021/07/27 09:56:43;;;;;;;23.05;4.10;;;;;;;28.11;28.70;99615.84;5016437;28;20145;-78
2021/07/27 09:59:10;;;;;;;13.43;4.35;;;;;;;28.20;28.33;99618.31;5016786;28;20049;-79
2021/07/27 10:05:11;;;;;;;10.82;3.67;;;;;;;28.40;28.21;99611.06;5043796;28;20049;-79
2021/07/27 10:07:37;;;;;;;12.85;3.83;;;;;;;28.41;28.91;99607.09;5027665;28;20413;-78
2021/07/27 10:10:09;;;;;;;15.95;4.22;;;;;;;28.41;29.50;99600.66;5041346;28;20052;-76
2021/07/27 10:12:36;;;;;;;17.17;4.00;;;;;;;28.38;30.41;99587.41;5048975;28;20049;-83
2021/07/27 10:15:11;;;;;;;15.23;4.55;;;;;;;28.32;31.70;99603.88;5047069;28;20083;-76
2021/07/27 10:17:51;;;;;;;10.40;3.97;;;;;;;28.42;30.79;99602.25;5048964;28;20036;-76
2021/07/27 10:20:21;;;;;;;15.60;4.20;;;;;;;28.49;31.03;99602.25;5054415;28;20051;-76
2021/07/27 10:22:47;;;;;;;15.00;4.10;;;;;;;28.52;31.27;99606.25;5053899;28;20062;-75
2021/07/27 10:25:16;;;;;;;12.80;4.55;;;;;;;28.30;32.18;99592.22;5071972;28;20061;-75
2021/07/27 10:27:50;;;;;;;11.55;4.43;;;;;;;28.37;32.16;99594.22;5072100;28;20070;-75
2021/07/27 10:30:17;;;;;;;10.52;3.95;;;;;;;28.40;31.69;99601.84;5074111;28;20075;-75
2021/07/27 10:32:55;;;;;;;11.98;3.92;;;;;;;28.64;30.19;99576.91;5051826;28;20056;-75
2021/07/27 10:35:25;;;;;;;15.10;4.18;;;;;;;28.89;29.92;99584.53;5065646;28;20094;-74
2021/07/27 10:37:52;;;;;;;16.83;4.35;;;;;;;29.06;29.44;99583.69;5055621;28;20055;-74
2021/07/27 10:40:28;;;;;;;11.15;4.03;;;;;;;29.26;28.82;99586.00;5074115;28;20044;-76
2021/07/27 10:42:54;;;;;;;13.18;3.88;;;;;;;29.41;28.33;99575.50;5060994;28;20048;-74
2021/07/27 10:45:21;;;;;;;16.73;4.00;;;;;;;29.54;27.95;99567.41;5031647;28;20091;-76
2021/07/27 10:47:49;;;;;;;15.43;4.35;;;;;;;29.57;27.83;99566.59;5031498;28;20045;-74
2021/07/27 10:50:15;;;;;;;11.60;4.05;;;;;;;29.51;28.23;99569.06;5052998;28;20095;-74
2021/07/27 10:52:43;;;;;;;13.10;4.20;;;;;;;29.58;27.99;99566.19;5045808;28;20050;-75
2021/07/27 10:55:11;;;;;;;13.07;3.95;;;;;;;29.71;28.49;99565.72;5047200;28;20049;-75
2021/07/27 10:57:47;;;;;;;14.18;4.20;;;;;;;29.76;28.52;99568.09;5032635;28;20232;-74
2021/07/27 11:00:14;;;;;;;12.15;4.40;;;;;;;29.71;28.48;99558.06;5031821;28;20513;-75
2021/07/27 11:02:40;;;;;;;16.42;4.30;;;;;;;29.81;28.07;99555.59;5056063;28;20140;-73
2021/07/27 11:05:08;;;;;;;13.90;4.33;;;;;;;29.79;27.57;99543.94;5042171;28;20132;-73
2021/07/27 11:07:34;;;;;;;13.55;4.55;;;;;;;29.98;27.68;99551.06;5041907;28;20178;-76
2021/07/27 11:10:02;;;;;;;12.02;3.92;;;;;;;30.10;27.16;99547.75;5023571;28;20048;-74
2021/07/27 11:12:30;;;;;;;14.32;4.35;;;;;;;30.26;26.61;99552.84;5045577;28;20087;-74
2021/07/27 11:15:05;;;;;;;13.15;3.90;;;;;;;30.43;26.03;99548.25;5043408;28;20049;-74
2021/07/27 11:17:31;;;;;;;11.52;4.07;;;;;;;30.54;26.05;99550.16;5047482;28;20080;-74
2021/07/27 11:19:59;;;;;;;14.40;4.13;;;;;;;30.66;26.00;99548.84;5056410;28;20124;-75
2021/07/27 11:22:26;;;;;;;15.25;4.43;;;;;;;30.74;25.98;99549.59;5053780;28;20049;-71
2021/07/27 11:24:54;;;;;;;;;;;;;;;30.88;25.87;99552.25;5050313;28;20065;-71
2021/07/27 11:27:27;;;;;;;12.63;4.30;;;;;;;30.92;25.58;99546.56;5038624;28;19925;-72
2021/07/27 11:29:58;;;;;;;17.55;4.45;;;;;;;31.01;25.23;99540.41;5041712;28;20102;-72
2021/07/27 11:32:36;;;;;;;13.60;4.65;;;;;;;30.83;26.91;99542.25;5024504;28;20072;-73
2021/07/27 11:35:03;;;;;;;10.38;4.25;;;;;;;30.63;27.76;99532.78;5046428;28;20110;-75
2021/07/27 11:37:29;;;;;;;13.07;4.20;;;;;;;30.45;28.39;99527.31;5043047;28;20560;-74
2021/07/27 11:39:55;;;;;;;16.17;4.83;;;;;;;30.24;28.67;99527.09;5049032;28;20052;-74
2021/07/27 11:42:30;;;;;;;15.05;4.90;;;;;;;30.26;29.00;99529.47;5040818;28;20739;-73
2021/07/27 11:44:57;;;;;;;20.08;4.97;;;;;;;30.28;29.05;99530.69;5043253;28;20122;-72
2021/07/27 11:47:25;;;;;;;18.50;5.22;;;;;;;30.50;27.03;99515.56;5031790;28;20053;-72
2021/07/27 11:49:55;;;;;;;21.48;4.68;;;;;;;30.80;25.18;99516.88;5031564;28;20045;-72